createdAt,value
2018-02-11T00:02:00.980Z,1.00
2018-02-11T00:04:29.267Z,1.00
2018-02-11T00:06:57.568Z,1.00
2018-02-11T00:09:25.853Z,1.00
2018-02-11T00:11:54.156Z,1.00
2018-02-11T00:14:21.691Z,1.00
2018-02-11T00:16:49.991Z,1.00
2018-02-11T00:19:18.273Z,1.00
2018-02-11T00:21:46.584Z,1.10
2018-02-11T00:24:14.872Z,1.00
2018-02-11T00:26:43.172Z,1.00
2018-02-11T00:29:11.459Z,1.00
2018-02-11T00:31:39.754Z,1.00
2018-02-11T00:34:08.036Z,1.00
2018-02-11T00:36:36.339Z,1.00
2018-02-11T00:39:04.629Z,1.00
2018-02-11T00:41:32.938Z,1.00
2018-02-11T00:44:01.225Z,1.00
2018-02-11T00:46:29.535Z,1.00
2018-02-11T00:48:57.820Z,1.00
2018-02-11T00:51:26.124Z,1.00
2018-02-11T00:53:54.408Z,1.00
2018-02-11T00:56:22.717Z,1.00
2018-02-11T00:58:50.999Z,1.00
2018-02-11T01:01:19.309Z,1.00
2018-02-11T01:03:47.587Z,1.00
2018-02-11T01:06:15.888Z,1.00
2018-02-11T01:08:44.164Z,1.00
2018-02-11T01:11:12.463Z,1.00
2018-02-11T01:13:40.747Z,1.10
2018-02-11T01:16:09.048Z,1.00
2018-02-11T01:18:37.331Z,1.10
2018-02-11T01:21:05.631Z,1.10
2018-02-11T01:23:33.907Z,1.10
2018-02-11T01:26:02.207Z,1.10
2018-02-11T01:28:30.484Z,1.10
2018-02-11T01:30:58.787Z,1.10
2018-02-11T01:33:27.068Z,1.10
2018-02-11T01:35:55.367Z,1.10
2018-02-11T01:38:23.714Z,1.10
2018-02-11T01:40:52.019Z,1.10
2018-02-11T01:43:20.299Z,1.10
2018-02-11T01:45:48.584Z,1.10
2018-02-11T01:48:16.884Z,1.10
2018-02-11T01:50:45.164Z,1.20
2018-02-11T01:53:13.459Z,1.20
2018-02-11T01:55:41.740Z,1.20
2018-02-11T01:58:10.064Z,1.20
2018-02-11T02:00:38.343Z,1.20
2018-02-11T02:03:06.647Z,1.20
2018-02-11T02:05:34.928Z,1.20
2018-02-11T02:08:03.227Z,1.20
2018-02-11T02:10:31.507Z,1.30
2018-02-11T02:12:59.803Z,1.30
2018-02-11T02:15:28.087Z,1.30
2018-02-11T02:17:56.392Z,1.30
2018-02-11T02:20:24.672Z,1.40
2018-02-11T02:22:52.971Z,1.40
2018-02-11T02:25:21.248Z,1.40
2018-02-11T02:27:49.551Z,1.40
2018-02-11T02:30:17.827Z,1.50
2018-02-11T02:32:46.132Z,1.50
2018-02-11T02:35:14.412Z,1.50
2018-02-11T02:37:42.720Z,1.50
2018-02-11T02:40:10.999Z,1.50
2018-02-11T02:42:39.308Z,1.50
2018-02-11T02:45:07.588Z,1.50
2018-02-11T02:47:35.891Z,1.50
2018-02-11T02:50:04.175Z,1.60
2018-02-11T02:52:32.476Z,1.50
2018-02-11T02:55:00.760Z,1.60
2018-02-11T02:57:29.065Z,1.60
2018-02-11T02:59:57.344Z,1.60
2018-02-11T03:02:25.643Z,1.60
2018-02-11T03:04:53.927Z,1.60
2018-02-11T03:07:22.233Z,1.60
2018-02-11T03:09:50.520Z,1.60
2018-02-11T03:12:18.827Z,1.60
2018-02-11T03:14:47.107Z,1.60
2018-02-11T03:17:15.402Z,1.60
2018-02-11T03:19:43.685Z,1.60
2018-02-11T03:22:11.996Z,1.60
2018-02-11T03:24:40.270Z,1.50
2018-02-11T03:27:08.546Z,1.50
2018-02-11T03:29:36.843Z,1.50
2018-02-11T03:32:05.123Z,1.50
2018-02-11T03:34:33.428Z,1.50
2018-02-11T03:37:01.707Z,1.50
2018-02-11T03:39:30.008Z,1.50
2018-02-11T03:41:58.292Z,1.50
2018-02-11T03:44:26.596Z,1.50
2018-02-11T03:46:54.875Z,1.50
2018-02-11T03:49:23.175Z,1.60
2018-02-11T03:51:51.452Z,1.60
2018-02-11T03:54:19.755Z,1.60
2018-02-11T03:56:48.037Z,1.60
2018-02-11T03:59:16.343Z,1.60
2018-02-11T04:01:44.628Z,1.60
2018-02-11T04:04:12.938Z,1.50
2018-02-11T04:06:41.211Z,1.60
2018-02-11T04:09:09.510Z,1.60
2018-02-11T04:11:37.796Z,1.50
2018-02-11T04:14:06.095Z,1.50
2018-02-11T04:16:34.376Z,1.50
2018-02-11T04:19:02.680Z,1.50
2018-02-11T04:21:30.967Z,1.50
2018-02-11T04:23:59.270Z,1.60
2018-02-11T04:26:27.547Z,1.60
2018-02-11T04:28:55.847Z,1.60
2018-02-11T04:31:23.375Z,1.50
2018-02-11T04:33:51.680Z,1.60
2018-02-11T04:36:19.960Z,1.50
2018-02-11T04:38:48.264Z,1.50
2018-02-11T04:41:16.548Z,1.60
2018-02-11T04:43:44.088Z,1.60
2018-02-11T04:46:12.366Z,1.60
2018-02-11T04:48:40.664Z,1.60
2018-02-11T04:51:08.944Z,1.60
2018-02-11T04:53:37.247Z,1.60
2018-02-11T04:56:05.532Z,1.60
2018-02-11T04:58:33.835Z,1.60
2018-02-11T05:01:02.110Z,1.60
2018-02-11T05:03:30.448Z,1.60
2018-02-11T05:05:58.735Z,1.60
2018-02-11T05:08:27.019Z,1.70
2018-02-11T05:10:54.551Z,1.60
2018-02-11T05:13:22.830Z,1.60
2018-02-11T05:15:51.129Z,1.70
2018-02-11T05:18:19.412Z,1.60
2018-02-11T05:20:47.720Z,1.60
2018-02-11T05:23:15.999Z,1.60
2018-02-11T05:25:44.299Z,1.70
2018-02-11T05:28:12.579Z,1.60
2018-02-11T05:30:40.892Z,1.70
2018-02-11T05:33:09.171Z,1.70
2018-02-11T05:35:37.475Z,1.70
2018-02-11T05:38:05.773Z,1.70
2018-02-11T05:40:34.076Z,1.70
2018-02-11T05:43:02.360Z,1.70
2018-02-11T05:45:30.663Z,1.70
2018-02-11T05:47:58.936Z,1.70
2018-02-11T05:50:27.243Z,1.70
2018-02-11T05:52:55.520Z,1.70
2018-02-11T05:55:23.820Z,1.70
2018-02-11T05:57:52.100Z,1.70
2018-02-11T06:00:20.403Z,1.70
2018-02-11T06:02:48.683Z,1.70
2018-02-11T06:05:16.991Z,1.80
2018-02-11T06:07:45.267Z,1.80
2018-02-11T06:10:13.566Z,1.80
2018-02-11T06:12:41.847Z,1.90
2018-02-11T06:15:10.150Z,1.90
2018-02-11T06:17:38.431Z,1.90
2018-02-11T06:20:06.734Z,1.90
2018-02-11T06:22:35.012Z,1.90
2018-02-11T06:25:03.311Z,1.90
2018-02-11T06:27:31.591Z,1.90
2018-02-11T06:30:00.864Z,2.00
2018-02-11T06:32:29.147Z,2.00
2018-02-11T06:34:57.459Z,2.00
2018-02-11T06:37:25.746Z,2.00
2018-02-11T06:39:54.053Z,2.00
2018-02-11T06:42:22.339Z,2.10
2018-02-11T06:44:50.639Z,2.10
2018-02-11T06:47:18.924Z,2.10
2018-02-11T06:49:47.207Z,2.10
2018-02-11T06:52:15.508Z,2.10
2018-02-11T06:54:43.787Z,2.10
2018-02-11T06:57:12.091Z,2.20
2018-02-11T06:59:40.367Z,2.20
2018-02-11T07:02:08.672Z,2.20
2018-02-11T07:04:36.947Z,2.30
2018-02-11T07:07:05.252Z,2.30
2018-02-11T07:09:33.532Z,2.30
2018-02-11T07:12:01.839Z,2.40
2018-02-11T07:14:30.123Z,2.40
2018-02-11T07:16:58.430Z,2.40
2018-02-11T07:19:26.707Z,2.40
2018-02-11T07:21:55.015Z,2.40
2018-02-11T07:24:23.295Z,2.50
2018-02-11T07:26:51.596Z,2.50
2018-02-11T07:29:19.879Z,2.50
2018-02-11T07:31:47.426Z,2.50
2018-02-11T07:34:15.704Z,2.60
2018-02-11T07:36:44.012Z,2.70
2018-02-11T07:39:12.300Z,2.70
2018-02-11T07:41:40.607Z,2.70
2018-02-11T07:44:08.893Z,2.80
2018-02-11T07:46:37.204Z,2.80
2018-02-11T07:49:05.495Z,2.90
2018-02-11T07:51:33.805Z,2.90
2018-02-11T07:54:02.092Z,3.00
2018-02-11T07:56:30.396Z,3.00
2018-02-11T07:58:58.685Z,3.10
2018-02-11T08:01:26.999Z,3.10
2018-02-11T08:03:55.292Z,3.20
2018-02-11T08:06:23.587Z,3.20
2018-02-11T08:08:51.871Z,3.20
2018-02-11T08:11:20.178Z,3.20
2018-02-11T08:13:48.458Z,3.20
2018-02-11T08:16:16.755Z,3.20
2018-02-11T08:18:45.037Z,3.20
2018-02-11T08:21:13.344Z,3.30
2018-02-11T08:23:41.619Z,3.30
2018-02-11T08:26:09.936Z,3.30
2018-02-11T08:28:38.221Z,3.40
2018-02-11T08:31:06.500Z,3.40
2018-02-11T08:33:34.798Z,3.40
2018-02-11T08:36:03.075Z,3.50
2018-02-11T08:38:31.388Z,3.50
2018-02-11T08:40:59.675Z,3.60
2018-02-11T08:43:27.984Z,3.60
2018-02-11T08:45:55.505Z,3.60
2018-02-11T08:48:23.803Z,3.60
2018-02-11T08:50:52.083Z,3.70
2018-02-11T08:53:20.383Z,3.70
2018-02-11T08:55:48.664Z,3.80
2018-02-11T08:58:16.962Z,3.90
2018-02-11T09:00:45.252Z,3.90
2018-02-11T09:03:12.788Z,3.90
2018-02-11T09:05:41.098Z,4.00
2018-02-11T09:08:09.388Z,3.90
2018-02-11T09:10:37.677Z,4.00
2018-02-11T09:13:05.979Z,4.00
2018-02-11T09:15:34.259Z,4.10
2018-02-11T09:18:02.560Z,4.10
2018-02-11T09:20:30.840Z,4.20
2018-02-11T09:22:59.149Z,4.30
2018-02-11T09:25:27.432Z,4.40
2018-02-11T09:27:55.740Z,4.50
2018-02-11T09:30:24.033Z,4.60
2018-02-11T09:32:52.332Z,4.70
2018-02-11T09:35:20.607Z,4.70
2018-02-11T09:37:48.911Z,4.70
2018-02-11T09:40:17.191Z,4.70
2018-02-11T09:42:45.492Z,4.70
2018-02-11T09:45:13.775Z,4.80
2018-02-11T09:47:42.072Z,4.70
2018-02-11T09:50:10.347Z,4.80
2018-02-11T09:52:38.648Z,4.90
2018-02-11T09:55:06.926Z,5.00
2018-02-11T09:57:35.224Z,5.00
2018-02-11T10:00:03.512Z,4.90
2018-02-11T10:02:31.815Z,4.90
2018-02-11T10:05:00.107Z,4.90
2018-02-11T10:07:28.419Z,4.90
2018-02-11T10:09:56.704Z,4.90
2018-02-11T10:12:25.047Z,4.90
2018-02-11T10:14:53.331Z,5.00
2018-02-11T10:17:21.617Z,5.20
2018-02-11T10:19:49.916Z,5.40
2018-02-11T10:22:18.196Z,5.50
2018-02-11T10:24:46.507Z,5.60
2018-02-11T10:27:14.783Z,5.70
2018-02-11T10:29:43.087Z,5.80
2018-02-11T10:32:11.412Z,5.90
2018-02-11T10:34:39.718Z,6.00
2018-02-11T10:37:08.002Z,5.90
2018-02-11T10:39:36.307Z,6.00
2018-02-11T10:42:04.605Z,6.00
2018-02-11T10:44:32.911Z,6.10
2018-02-11T10:47:01.196Z,6.30
2018-02-11T10:49:29.495Z,6.50
2018-02-11T10:51:57.776Z,6.70
2018-02-11T10:54:26.074Z,6.70
2018-02-11T10:56:54.372Z,6.70
2018-02-11T10:59:22.684Z,6.50
2018-02-11T11:01:50.209Z,6.50
2018-02-11T11:04:18.512Z,6.70
2018-02-11T11:06:46.801Z,6.70
2018-02-11T11:09:15.108Z,6.80
2018-02-11T11:11:43.396Z,7.00
2018-02-11T11:14:11.707Z,7.00
2018-02-11T11:16:39.991Z,7.10
2018-02-11T11:19:08.299Z,7.10
2018-02-11T11:21:36.579Z,7.10
2018-02-11T11:24:04.883Z,7.10
2018-02-11T11:26:33.171Z,6.90
2018-02-11T11:29:01.476Z,6.80
2018-02-11T11:31:29.772Z,6.70
2018-02-11T11:33:58.079Z,6.80
2018-02-11T11:36:26.363Z,6.80
2018-02-11T11:38:54.663Z,6.80
2018-02-11T11:41:22.944Z,6.70
2018-02-11T11:43:51.251Z,6.50
2018-02-11T11:46:19.544Z,6.40
2018-02-11T11:48:47.851Z,6.30
2018-02-11T11:51:16.143Z,6.30
2018-02-11T11:53:44.455Z,6.20
2018-02-11T11:56:12.744Z,6.20
2018-02-11T11:58:41.046Z,6.10
2018-02-11T12:01:09.328Z,6.00
2018-02-11T12:03:37.618Z,5.90
2018-02-11T12:06:05.928Z,5.80
2018-02-11T12:08:34.215Z,5.80
2018-02-11T12:11:02.528Z,5.80
2018-02-11T12:13:30.816Z,5.70
2018-02-11T12:15:59.123Z,5.40
2018-02-11T12:18:28.326Z,5.40
2018-02-11T12:20:56.640Z,5.40
2018-02-11T12:23:24.928Z,5.40
2018-02-11T12:25:53.235Z,5.50
2018-02-11T12:28:21.524Z,5.70
2018-02-11T12:30:49.832Z,5.80
2018-02-11T12:33:18.116Z,6.00
2018-02-11T12:35:46.431Z,6.10
2018-02-11T12:38:14.726Z,6.10
2018-02-11T12:40:43.036Z,6.10
2018-02-11T12:43:10.556Z,6.10
2018-02-11T12:45:38.868Z,6.00
2018-02-11T12:48:07.159Z,6.20
2018-02-11T12:50:35.463Z,6.50
2018-02-11T12:53:02.984Z,6.40
2018-02-11T12:55:31.286Z,7.10
2018-02-11T12:57:59.564Z,7.20
2018-02-11T13:00:27.876Z,7.10
2018-02-11T13:02:56.163Z,6.90
2018-02-11T13:05:24.472Z,6.60
2018-02-11T13:07:52.756Z,6.60
2018-02-11T13:10:21.064Z,6.40
2018-02-11T13:12:49.349Z,6.20
2018-02-11T13:15:17.692Z,6.00
2018-02-11T13:17:45.959Z,5.80
2018-02-11T13:20:14.268Z,5.70
2018-02-11T13:22:42.562Z,5.50
2018-02-11T13:25:10.869Z,5.30
2018-02-11T13:27:39.156Z,5.20
2018-02-11T13:30:07.459Z,5.10
2018-02-11T13:32:35.740Z,5.10
2018-02-11T13:35:04.043Z,5.10
2018-02-11T13:37:32.332Z,5.10
2018-02-11T13:40:00.631Z,5.10
2018-02-11T13:42:28.917Z,5.00
2018-02-11T13:44:57.240Z,5.00
2018-02-11T13:47:25.534Z,5.10
2018-02-11T13:49:53.822Z,5.20
2018-02-11T13:52:22.120Z,5.30
2018-02-11T13:54:50.400Z,5.40
2018-02-11T13:57:18.708Z,5.60
2018-02-11T13:59:47.004Z,5.90
2018-02-11T14:02:15.316Z,6.00
2018-02-11T14:04:43.608Z,6.20
2018-02-11T14:07:11.918Z,6.40
2018-02-11T14:09:40.199Z,6.50
2018-02-11T14:12:08.512Z,6.50
2018-02-11T14:14:36.804Z,6.40
2018-02-11T14:17:05.119Z,6.50
2018-02-11T14:19:33.428Z,6.50
2018-02-11T14:22:01.737Z,6.60
2018-02-11T14:24:29.280Z,6.60
2018-02-11T14:26:57.597Z,6.70
2018-02-11T14:29:25.884Z,6.60
2018-02-11T14:31:54.187Z,6.50
2018-02-11T14:34:22.476Z,6.40
2018-02-11T14:36:50.780Z,6.20
2018-02-11T14:39:19.063Z,5.90
2018-02-11T14:41:47.362Z,5.90
2018-02-11T14:44:15.648Z,6.00
2018-02-11T14:46:43.963Z,6.00
2018-02-11T14:49:15.448Z,6.00
2018-02-11T14:51:43.752Z,6.00
2018-02-11T14:54:12.033Z,6.00
2018-02-11T14:56:40.344Z,5.90
2018-02-11T14:59:08.636Z,5.90
2018-02-11T15:01:36.939Z,5.80
2018-02-11T15:04:05.216Z,5.70
2018-02-11T15:06:33.511Z,5.70
2018-02-11T15:09:01.796Z,5.60
2018-02-11T15:11:30.105Z,5.60
2018-02-11T15:13:58.388Z,5.50
2018-02-11T15:16:26.699Z,5.40
2018-02-11T15:18:54.992Z,5.40
2018-02-11T15:21:23.300Z,5.40
2018-02-11T15:23:51.583Z,5.50
2018-02-11T15:26:19.140Z,5.40
2018-02-11T15:28:47.419Z,5.50
2018-02-11T15:31:15.712Z,5.40
2018-02-11T15:33:44.071Z,5.40
2018-02-11T15:36:12.356Z,5.30
2018-02-11T15:38:40.652Z,5.30
2018-02-11T15:41:08.936Z,5.20
2018-02-11T15:43:37.248Z,5.20
2018-02-11T15:46:05.532Z,5.20
2018-02-11T15:48:33.844Z,5.30
2018-02-11T15:51:02.132Z,5.30
2018-02-11T15:53:30.436Z,5.20
2018-02-11T15:55:58.724Z,5.10
2018-02-11T15:58:27.033Z,5.00
2018-02-11T16:00:55.315Z,4.90
2018-02-11T16:03:23.616Z,4.80
2018-02-11T16:05:51.900Z,4.60
2018-02-11T16:08:20.207Z,4.50
2018-02-11T16:10:48.497Z,4.40
2018-02-11T16:13:16.802Z,4.30
2018-02-11T16:15:45.092Z,4.30
2018-02-11T16:18:13.403Z,4.20
2018-02-11T16:20:41.683Z,4.20
2018-02-11T16:23:09.987Z,4.10
2018-02-11T16:25:38.276Z,4.10
2018-02-11T16:28:06.584Z,4.00
2018-02-11T16:30:34.863Z,4.00
2018-02-11T16:33:03.188Z,4.00
2018-02-11T16:35:31.464Z,3.90
2018-02-11T16:37:59.768Z,3.90
2018-02-11T16:40:28.086Z,3.80
2018-02-11T16:42:56.382Z,3.70
2018-02-11T16:45:24.673Z,3.70
2018-02-11T16:47:52.991Z,3.60
2018-02-11T16:50:21.267Z,3.50
2018-02-11T16:52:49.573Z,3.50
2018-02-11T16:55:17.860Z,3.50
2018-02-11T16:57:46.164Z,3.50
2018-02-11T17:00:14.452Z,3.50
2018-02-11T17:02:42.731Z,3.60
2018-02-11T17:05:11.036Z,3.50
2018-02-11T17:07:39.315Z,3.40
2018-02-11T17:10:07.615Z,3.40
2018-02-11T17:12:35.897Z,3.30
2018-02-11T17:15:04.196Z,3.20
2018-02-11T17:17:32.484Z,3.10
2018-02-11T17:20:00.794Z,3.00
2018-02-11T17:22:29.084Z,2.90
2018-02-11T17:24:57.393Z,2.80
2018-02-11T17:27:25.673Z,2.80
2018-02-11T17:29:53.974Z,2.70
2018-02-11T17:32:22.260Z,2.70
2018-02-11T17:34:50.559Z,2.60
2018-02-11T17:37:18.844Z,2.60
2018-02-11T17:39:47.156Z,2.50
2018-02-11T17:42:15.439Z,2.50
2018-02-11T17:44:42.980Z,2.50
2018-02-11T17:47:11.268Z,2.70
2018-02-11T17:49:39.572Z,2.70
2018-02-11T17:52:07.857Z,2.80
2018-02-11T17:54:36.160Z,2.80
2018-02-11T17:57:04.435Z,2.70
2018-02-11T17:59:32.732Z,2.70
2018-02-11T18:02:01.010Z,2.70
2018-02-11T18:04:29.315Z,2.60
2018-02-11T18:06:57.600Z,2.60
2018-02-11T18:09:25.899Z,2.60
2018-02-11T18:11:54.238Z,2.60
2018-02-11T18:14:22.565Z,2.60
2018-02-11T18:16:50.915Z,2.60
2018-02-11T18:19:19.228Z,2.60
2018-02-11T18:21:47.512Z,2.50
2018-02-11T18:24:15.820Z,2.40
2018-02-11T18:26:44.113Z,2.40
2018-02-11T18:29:12.423Z,2.30
2018-02-11T18:31:39.938Z,2.30
2018-02-11T18:34:08.272Z,2.20
2018-02-11T18:36:36.559Z,2.20
2018-02-11T18:39:04.859Z,2.10
2018-02-11T18:41:33.148Z,2.10
2018-02-11T18:44:01.456Z,2.00
2018-02-11T18:46:29.838Z,2.00
2018-02-11T18:48:58.162Z,2.00
2018-02-11T18:51:26.463Z,1.90
2018-02-11T18:53:54.736Z,1.90
2018-02-11T18:56:23.031Z,1.90
2018-02-11T18:58:51.320Z,1.90
2018-02-11T19:01:19.632Z,1.90
2018-02-11T19:03:47.923Z,1.90
2018-02-11T19:06:16.233Z,1.90
2018-02-11T19:08:44.519Z,1.80
2018-02-11T19:11:12.836Z,1.80
2018-02-11T19:13:41.118Z,1.70
2018-02-11T19:16:08.664Z,1.70
2018-02-11T19:18:36.946Z,1.60
2018-02-11T19:21:05.248Z,1.60
2018-02-11T19:23:33.556Z,1.60
2018-02-11T19:26:01.865Z,1.60
2018-02-11T19:28:30.151Z,1.70
2018-02-11T19:30:58.446Z,1.70
2018-02-11T19:33:26.719Z,1.70
2018-02-11T19:35:55.027Z,1.80
2018-02-11T19:38:23.316Z,1.80
2018-02-11T19:40:51.620Z,1.90
2018-02-11T19:43:19.900Z,2.00
2018-02-11T19:45:48.208Z,2.10
2018-02-11T19:48:16.492Z,2.10
2018-02-11T19:50:44.791Z,2.10
2018-02-11T19:53:13.068Z,2.20
2018-02-11T19:55:41.367Z,2.20
2018-02-11T19:58:09.661Z,2.20
2018-02-11T20:00:37.964Z,2.20
2018-02-11T20:03:06.243Z,2.20
2018-02-11T20:05:34.544Z,2.20
2018-02-11T20:08:02.837Z,2.20
2018-02-11T20:10:31.140Z,2.20
2018-02-11T20:12:59.420Z,2.20
2018-02-11T20:15:27.771Z,2.20
2018-02-11T20:17:56.055Z,2.20
2018-02-11T20:20:24.395Z,2.20
2018-02-11T20:22:52.711Z,2.20
2018-02-11T20:25:21.005Z,2.20
2018-02-11T20:27:49.315Z,2.10
2018-02-11T20:30:17.600Z,2.10
2018-02-11T20:32:45.909Z,2.00
2018-02-11T20:35:14.207Z,1.90
2018-02-11T20:37:42.511Z,1.80
2018-02-11T20:40:10.796Z,1.70
2018-02-11T20:42:39.103Z,1.60
2018-02-11T20:45:07.454Z,1.50
2018-02-11T20:47:35.799Z,1.40
2018-02-11T20:50:04.076Z,1.30
2018-02-11T20:52:32.428Z,1.30
2018-02-11T20:55:00.760Z,1.20
2018-02-11T20:57:29.073Z,1.10
2018-02-11T20:59:57.364Z,1.20
2018-02-11T21:02:25.667Z,1.20
2018-02-11T21:04:53.943Z,1.30
2018-02-11T21:07:22.244Z,1.40
2018-02-11T21:09:50.524Z,1.50
2018-02-11T21:12:18.053Z,1.50
2018-02-11T21:14:46.332Z,1.60
2018-02-11T21:17:14.636Z,1.70
2018-02-11T21:19:42.919Z,1.70
2018-02-11T21:22:11.220Z,1.70
2018-02-11T21:24:39.491Z,1.70
2018-02-11T21:27:07.799Z,1.80
2018-02-11T21:29:36.083Z,1.80
2018-02-11T21:32:04.392Z,1.70
2018-02-11T21:34:32.673Z,1.70
2018-02-11T21:37:00.975Z,1.60
2018-02-11T21:39:29.268Z,1.50
2018-02-11T21:41:57.576Z,1.50
2018-02-11T21:44:25.856Z,1.40
2018-02-11T21:46:54.159Z,1.40
2018-02-11T21:49:22.440Z,1.40
2018-02-11T21:51:50.747Z,1.50
2018-02-11T21:54:19.032Z,1.50
2018-02-11T21:56:47.334Z,1.60
2018-02-11T21:59:15.615Z,1.60
2018-02-11T22:01:43.920Z,1.60
2018-02-11T22:04:12.205Z,1.60
2018-02-11T22:06:40.551Z,1.70
2018-02-11T22:09:08.831Z,1.70
2018-02-11T22:11:37.108Z,1.70
2018-02-11T22:14:05.407Z,1.70
2018-02-11T22:16:33.724Z,1.70
2018-02-11T22:19:02.034Z,1.70
2018-02-11T22:21:30.315Z,1.70
2018-02-11T22:23:58.620Z,1.60
2018-02-11T22:26:26.904Z,1.70
2018-02-11T22:28:55.209Z,1.70
2018-02-11T22:31:23.497Z,1.70
2018-02-11T22:33:51.796Z,1.60
2018-02-11T22:36:20.087Z,1.70
2018-02-11T22:38:48.395Z,1.70
2018-02-11T22:41:16.684Z,1.70
2018-02-11T22:43:44.987Z,1.70
2018-02-11T22:46:13.267Z,1.70
2018-02-11T22:48:41.567Z,1.70
2018-02-11T22:51:09.853Z,1.70
2018-02-11T22:53:37.391Z,1.70
2018-02-11T22:56:05.672Z,1.70
2018-02-11T22:58:33.986Z,1.70
2018-02-11T23:01:02.263Z,1.80
2018-02-11T23:03:30.569Z,1.80
2018-02-11T23:05:58.872Z,1.80
2018-02-11T23:08:27.176Z,1.80
2018-02-11T23:10:55.459Z,1.80
2018-02-11T23:13:23.758Z,1.80
2018-02-11T23:15:52.040Z,1.80
2018-02-11T23:18:20.339Z,1.80
2018-02-11T23:20:48.620Z,1.70
2018-02-11T23:23:16.923Z,1.80
2018-02-11T23:25:45.216Z,1.70
2018-02-11T23:28:13.512Z,1.70
2018-02-11T23:30:41.796Z,1.70
2018-02-11T23:33:10.095Z,1.70
2018-02-11T23:35:37.611Z,1.70
2018-02-11T23:38:05.915Z,1.60
2018-02-11T23:40:34.210Z,1.70
2018-02-11T23:43:02.524Z,1.60
2018-02-11T23:45:30.803Z,1.60
2018-02-11T23:47:59.091Z,1.60
2018-02-11T23:50:27.392Z,1.60
2018-02-11T23:52:55.670Z,1.60
2018-02-11T23:55:23.973Z,1.60
2018-02-11T23:57:52.255Z,1.60
